sensor_id;sensor_type;location;lat;lon;timestamp;pressure;altitude;pressure_sealevel;temperature;humidity
31346;BME280;21711;49.708;18.568;2022-12-29T00:00:12;97365.06;;;3.61;75.71
31346;BME280;21711;49.708;18.568;2022-12-29T00:02:40;97373.94;;;3.60;74.81
31346;BME280;21711;49.708;18.568;2022-12-29T00:05:08;97372.69;;;3.62;77.05
31346;BME280;21711;49.708;18.568;2022-12-29T00:07:35;97365.28;;;3.47;77.48
31346;BME280;21711;49.708;18.568;2022-12-29T00:10:03;97365.47;;;3.34;79.07
31346;BME280;21711;49.708;18.568;2022-12-29T00:12:31;97368.34;;;3.13;78.78
31346;BME280;21711;49.708;18.568;2022-12-29T00:15:18;97369.84;;;2.91;80.92
31346;BME280;21711;49.708;18.568;2022-12-29T00:18:04;97371.44;;;2.73;82.24
31346;BME280;21711;49.708;18.568;2022-12-29T00:20:37;97356.31;;;2.63;81.91
31346;BME280;21711;49.708;18.568;2022-12-29T00:23:23;97360.28;;;2.66;80.57
31346;BME280;21711;49.708;18.568;2022-12-29T00:26:15;97351.09;;;2.63;84.16
31346;BME280;21711;49.708;18.568;2022-12-29T00:29:01;97343.41;;;2.49;85.79
31346;BME280;21711;49.708;18.568;2022-12-29T00:31:48;97341.53;;;2.57;84.36
31346;BME280;21711;49.708;18.568;2022-12-29T00:34:33;97331.59;;;2.47;86.36
31346;BME280;21711;49.708;18.568;2022-12-29T00:37:19;97335.97;;;2.28;89.12
31346;BME280;21711;49.708;18.568;2022-12-29T00:40:07;97325.47;;;2.34;88.06
31346;BME280;21711;49.708;18.568;2022-12-29T00:42:58;97317.72;;;2.28;85.94
31346;BME280;21711;49.708;18.568;2022-12-29T00:45:48;97324.31;;;2.30;89.79
31346;BME280;21711;49.708;18.568;2022-12-29T00:48:15;97316.78;;;2.22;88.91
31346;BME280;21711;49.708;18.568;2022-12-29T00:51:03;97314.69;;;2.31;86.10
31346;BME280;21711;49.708;18.568;2022-12-29T00:53:30;97315.28;;;2.33;85.86
31346;BME280;21711;49.708;18.568;2022-12-29T00:55:58;97315.56;;;2.43;86.41
31346;BME280;21711;49.708;18.568;2022-12-29T00:58:29;97328.75;;;2.48;85.81
31346;BME280;21711;49.708;18.568;2022-12-29T01:01:08;97320.69;;;2.69;84.39
31346;BME280;21711;49.708;18.568;2022-12-29T01:03:37;97327.78;;;2.80;86.17
31346;BME280;21711;49.708;18.568;2022-12-29T01:06:07;97332.13;;;2.86;86.00
31346;BME280;21711;49.708;18.568;2022-12-29T01:08:37;97324.69;;;3.02;85.28
31346;BME280;21711;49.708;18.568;2022-12-29T01:11:08;97322.56;;;3.11;86.10
31346;BME280;21711;49.708;18.568;2022-12-29T01:13:37;97323.97;;;3.25;86.66
31346;BME280;21711;49.708;18.568;2022-12-29T01:16:10;97326.50;;;3.32;85.45
31346;BME280;21711;49.708;18.568;2022-12-29T01:18:38;97328.66;;;3.35;84.97
31346;BME280;21711;49.708;18.568;2022-12-29T01:21:06;97331.28;;;3.35;83.74
31346;BME280;21711;49.708;18.568;2022-12-29T01:23:34;97335.59;;;3.41;82.54
31346;BME280;21711;49.708;18.568;2022-12-29T01:26:15;97333.00;;;3.53;85.04
31346;BME280;21711;49.708;18.568;2022-12-29T01:28:44;97336.41;;;3.54;81.76
31346;BME280;21711;49.708;18.568;2022-12-29T01:31:14;97341.09;;;3.64;82.77
31346;BME280;21711;49.708;18.568;2022-12-29T01:33:42;97344.06;;;3.67;85.11
31346;BME280;21711;49.708;18.568;2022-12-29T01:36:14;97336.91;;;3.75;83.65
31346;BME280;21711;49.708;18.568;2022-12-29T01:38:43;97341.00;;;3.71;81.88
31346;BME280;21711;49.708;18.568;2022-12-29T01:41:13;97340.88;;;3.77;83.76
31346;BME280;21711;49.708;18.568;2022-12-29T01:43:56;97338.91;;;3.61;85.36
31346;BME280;21711;49.708;18.568;2022-12-29T01:46:37;97332.44;;;3.63;84.54
31346;BME280;21711;49.708;18.568;2022-12-29T01:49:27;97324.16;;;3.66;81.67
31346;BME280;21711;49.708;18.568;2022-12-29T01:52:05;97320.06;;;3.71;80.01
31346;BME280;21711;49.708;18.568;2022-12-29T01:54:46;97317.13;;;3.79;79.68
31346;BME280;21711;49.708;18.568;2022-12-29T01:57:20;97315.19;;;3.86;81.90
31346;BME280;21711;49.708;18.568;2022-12-29T01:59:58;97318.47;;;3.70;83.06
31346;BME280;21711;49.708;18.568;2022-12-29T02:02:27;97312.91;;;3.78;78.96
31346;BME280;21711;49.708;18.568;2022-12-29T02:05:05;97305.75;;;3.85;80.16
31346;BME280;21711;49.708;18.568;2022-12-29T02:07:34;97298.22;;;3.77;80.35
31346;BME280;21711;49.708;18.568;2022-12-29T02:10:03;97296.97;;;3.79;80.07
31346;BME280;21711;49.708;18.568;2022-12-29T02:12:30;97288.91;;;3.93;79.01
31346;BME280;21711;49.708;18.568;2022-12-29T02:15:00;97293.78;;;4.01;80.08
31346;BME280;21711;49.708;18.568;2022-12-29T02:35:52;97288.22;;;3.50;84.83
31346;BME280;21711;49.708;18.568;2022-12-29T02:41:19;97289.69;;;3.46;82.46
31346;BME280;21711;49.708;18.568;2022-12-29T02:47:28;97274.91;;;4.11;76.94
31346;BME280;21711;49.708;18.568;2022-12-29T02:50:20;97267.63;;;4.54;74.69
31346;BME280;21711;49.708;18.568;2022-12-29T02:53:05;97271.00;;;4.96;73.13
31346;BME280;21711;49.708;18.568;2022-12-29T02:55:34;97268.22;;;5.03;73.88
31346;BME280;21711;49.708;18.568;2022-12-29T02:58:20;97260.25;;;4.80;74.99
31346;BME280;21711;49.708;18.568;2022-12-29T03:09:50;97246.22;;;5.55;69.38
31346;BME280;21711;49.708;18.568;2022-12-29T03:16:18;97256.63;;;5.50;70.30
31346;BME280;21711;49.708;18.568;2022-12-29T03:19:14;97248.94;;;5.09;74.29
31346;BME280;21711;49.708;18.568;2022-12-29T03:22:00;97255.94;;;4.74;75.81
31346;BME280;21711;49.708;18.568;2022-12-29T03:25:06;97257.16;;;4.54;75.40
31346;BME280;21711;49.708;18.568;2022-12-29T03:27:48;97260.94;;;4.46;74.62
31346;BME280;21711;49.708;18.568;2022-12-29T03:30:18;97248.16;;;4.50;75.62
31346;BME280;21711;49.708;18.568;2022-12-29T03:32:57;97222.72;;;4.33;74.48
31346;BME280;21711;49.708;18.568;2022-12-29T03:35:32;97236.88;;;4.08;77.50
31346;BME280;21711;49.708;18.568;2022-12-29T03:40:45;97249.88;;;3.91;77.90
31346;BME280;21711;49.708;18.568;2022-12-29T03:43:15;97242.72;;;3.99;77.63
31346;BME280;21711;49.708;18.568;2022-12-29T03:45:45;97266.03;;;4.00;78.21
31346;BME280;21711;49.708;18.568;2022-12-29T03:48:13;97252.97;;;3.64;79.84
31346;BME280;21711;49.708;18.568;2022-12-29T03:50:41;97251.63;;;3.74;78.05
31346;BME280;21711;49.708;18.568;2022-12-29T03:53:08;97265.53;;;4.27;75.52
31346;BME280;21711;49.708;18.568;2022-12-29T03:55:38;97262.06;;;4.51;76.30
31346;BME280;21711;49.708;18.568;2022-12-29T03:58:05;97260.09;;;4.58;74.94
31346;BME280;21711;49.708;18.568;2022-12-29T04:00:47;97264.91;;;4.49;77.19
31346;BME280;21711;49.708;18.568;2022-12-29T04:03:15;97271.91;;;4.19;77.82
31346;BME280;21711;49.708;18.568;2022-12-29T04:05:44;97267.28;;;4.10;78.10
31346;BME280;21711;49.708;18.568;2022-12-29T04:08:11;97258.50;;;4.16;78.23
31346;BME280;21711;49.708;18.568;2022-12-29T04:10:39;97266.38;;;3.92;80.14
31346;BME280;21711;49.708;18.568;2022-12-29T04:13:06;97266.38;;;3.80;79.78
31346;BME280;21711;49.708;18.568;2022-12-29T04:15:34;97260.47;;;3.73;81.74
31346;BME280;21711;49.708;18.568;2022-12-29T04:18:01;97255.00;;;3.86;80.10
31346;BME280;21711;49.708;18.568;2022-12-29T04:20:29;97256.09;;;4.26;78.52
31346;BME280;21711;49.708;18.568;2022-12-29T04:23:15;97251.00;;;4.48;77.60
31346;BME280;21711;49.708;18.568;2022-12-29T04:25:48;97246.34;;;4.51;77.44
31346;BME280;21711;49.708;18.568;2022-12-29T04:28:16;97246.50;;;4.32;78.74
31346;BME280;21711;49.708;18.568;2022-12-29T04:31:03;97247.56;;;4.19;80.19
31346;BME280;21711;49.708;18.568;2022-12-29T04:33:35;97235.44;;;4.42;79.95
31346;BME280;21711;49.708;18.568;2022-12-29T04:36:03;97240.56;;;4.37;79.26
31346;BME280;21711;49.708;18.568;2022-12-29T04:38:31;97229.44;;;4.29;79.96
31346;BME280;21711;49.708;18.568;2022-12-29T04:41:02;97239.81;;;4.24;82.40
31346;BME280;21711;49.708;18.568;2022-12-29T04:43:30;97228.38;;;4.01;81.36
31346;BME280;21711;49.708;18.568;2022-12-29T04:46:17;97229.50;;;4.46;79.16
31346;BME280;21711;49.708;18.568;2022-12-29T04:48:56;97228.25;;;4.49;80.92
31346;BME280;21711;49.708;18.568;2022-12-29T04:51:44;97231.75;;;4.26;82.74
31346;BME280;21711;49.708;18.568;2022-12-29T04:54:13;97229.31;;;3.95;82.22
31346;BME280;21711;49.708;18.568;2022-12-29T04:56:43;97238.41;;;3.80;84.59
31346;BME280;21711;49.708;18.568;2022-12-29T04:59:13;97244.09;;;3.65;83.77
31346;BME280;21711;49.708;18.568;2022-12-29T05:01:42;97232.94;;;3.70;83.21
31346;BME280;21711;49.708;18.568;2022-12-29T05:04:10;97230.91;;;3.72;84.05
31346;BME280;21711;49.708;18.568;2022-12-29T05:06:37;97229.06;;;3.73;83.88
31346;BME280;21711;49.708;18.568;2022-12-29T05:09:05;97218.72;;;3.90;80.98
31346;BME280;21711;49.708;18.568;2022-12-29T05:11:34;97231.09;;;3.94;83.68
31346;BME280;21711;49.708;18.568;2022-12-29T05:14:02;97224.06;;;3.95;82.34
31346;BME280;21711;49.708;18.568;2022-12-29T05:16:29;97229.84;;;3.97;81.81
31346;BME280;21711;49.708;18.568;2022-12-29T05:18:57;97229.94;;;4.14;80.96
31346;BME280;21711;49.708;18.568;2022-12-29T05:21:24;97224.56;;;4.21;80.91
31346;BME280;21711;49.708;18.568;2022-12-29T05:23:52;97220.28;;;4.15;81.24
31346;BME280;21711;49.708;18.568;2022-12-29T05:26:19;97221.41;;;4.19;81.47
31346;BME280;21711;49.708;18.568;2022-12-29T05:29:09;97223.50;;;4.34;81.64
31346;BME280;21711;49.708;18.568;2022-12-29T05:31:37;97221.28;;;4.26;81.63
31346;BME280;21711;49.708;18.568;2022-12-29T05:34:05;97225.22;;;4.40;81.37
31346;BME280;21711;49.708;18.568;2022-12-29T05:36:33;97218.66;;;4.55;80.74
31346;BME280;21711;49.708;18.568;2022-12-29T05:39:05;97220.66;;;4.65;79.86
31346;BME280;21711;49.708;18.568;2022-12-29T05:41:35;97216.69;;;4.62;79.72
31346;BME280;21711;49.708;18.568;2022-12-29T05:44:22;97221.97;;;4.50;79.62
31346;BME280;21711;49.708;18.568;2022-12-29T05:47:09;97215.00;;;4.56;80.09
31346;BME280;21711;49.708;18.568;2022-12-29T05:50:06;97213.28;;;4.62;80.24
31346;BME280;21711;49.708;18.568;2022-12-29T05:52:53;97215.97;;;4.96;77.39
31346;BME280;21711;49.708;18.568;2022-12-29T05:55:20;97209.91;;;5.12;77.35
31346;BME280;21711;49.708;18.568;2022-12-29T05:57:50;97217.00;;;5.12;77.42
31346;BME280;21711;49.708;18.568;2022-12-29T06:00:18;97220.81;;;5.21;77.62
31346;BME280;21711;49.708;18.568;2022-12-29T06:02:46;97209.91;;;5.30;78.43
31346;BME280;21711;49.708;18.568;2022-12-29T06:05:16;97217.69;;;5.24;79.18
31346;BME280;21711;49.708;18.568;2022-12-29T06:07:44;97222.94;;;5.24;79.54
31346;BME280;21711;49.708;18.568;2022-12-29T06:10:14;97225.56;;;5.42;78.22
31346;BME280;21711;49.708;18.568;2022-12-29T06:12:46;97224.28;;;5.61;76.29
31346;BME280;21711;49.708;18.568;2022-12-29T06:15:14;97221.56;;;5.73;77.19
31346;BME280;21711;49.708;18.568;2022-12-29T06:17:44;97223.97;;;5.58;79.21
31346;BME280;21711;49.708;18.568;2022-12-29T06:20:13;97222.47;;;5.45;79.17
31346;BME280;21711;49.708;18.568;2022-12-29T06:22:40;97222.88;;;5.36;79.41
31346;BME280;21711;49.708;18.568;2022-12-29T06:25:08;97224.88;;;5.29;79.99
31346;BME280;21711;49.708;18.568;2022-12-29T06:27:36;97228.25;;;5.30;79.52
31346;BME280;21711;49.708;18.568;2022-12-29T06:30:04;97218.28;;;5.26;80.07
31346;BME280;21711;49.708;18.568;2022-12-29T06:32:32;97218.56;;;5.47;79.53
31346;BME280;21711;49.708;18.568;2022-12-29T06:35:04;97218.72;;;5.58;79.36
31346;BME280;21711;49.708;18.568;2022-12-29T06:37:36;97220.56;;;5.57;79.79
31346;BME280;21711;49.708;18.568;2022-12-29T06:40:05;97218.31;;;5.66;79.23
31346;BME280;21711;49.708;18.568;2022-12-29T06:42:48;97211.78;;;5.69;79.46
31346;BME280;21711;49.708;18.568;2022-12-29T06:45:32;97214.72;;;5.72;78.37
31346;BME280;21711;49.708;18.568;2022-12-29T06:47:59;97212.41;;;5.76;77.63
31346;BME280;21711;49.708;18.568;2022-12-29T06:50:27;97207.72;;;5.78;78.15
31346;BME280;21711;49.708;18.568;2022-12-29T06:52:54;97207.50;;;5.62;78.44
31346;BME280;21711;49.708;18.568;2022-12-29T06:55:22;97201.56;;;5.50;79.90
31346;BME280;21711;49.708;18.568;2022-12-29T06:57:49;97201.78;;;5.48;79.05
31346;BME280;21711;49.708;18.568;2022-12-29T07:00:17;97199.09;;;5.43;79.27
31346;BME280;21711;49.708;18.568;2022-12-29T07:02:49;97201.03;;;5.31;79.85
31346;BME280;21711;49.708;18.568;2022-12-29T07:05:17;97201.28;;;5.29;79.99
31346;BME280;21711;49.708;18.568;2022-12-29T07:07:44;97194.25;;;5.18;81.33
31346;BME280;21711;49.708;18.568;2022-12-29T07:10:11;97204.44;;;5.14;82.10
31346;BME280;21711;49.708;18.568;2022-12-29T07:12:39;97188.78;;;5.19;82.26
31346;BME280;21711;49.708;18.568;2022-12-29T07:15:07;97188.56;;;5.21;81.45
31346;BME280;21711;49.708;18.568;2022-12-29T07:17:34;97195.88;;;5.19;82.54
31346;BME280;21711;49.708;18.568;2022-12-29T07:20:02;97198.81;;;5.22;82.20
31346;BME280;21711;49.708;18.568;2022-12-29T07:22:30;97205.63;;;5.23;83.61
31346;BME280;21711;49.708;18.568;2022-12-29T07:24:57;97198.88;;;5.28;83.42
31346;BME280;21711;49.708;18.568;2022-12-29T07:27:24;97199.03;;;5.21;83.10
31346;BME280;21711;49.708;18.568;2022-12-29T07:29:52;97210.47;;;5.32;83.20
31346;BME280;21711;49.708;18.568;2022-12-29T07:32:19;97216.28;;;5.34;83.64
31346;BME280;21711;49.708;18.568;2022-12-29T07:34:46;97220.91;;;5.26;83.48
31346;BME280;21711;49.708;18.568;2022-12-29T07:37:17;97222.84;;;5.53;82.01
31346;BME280;21711;49.708;18.568;2022-12-29T07:39:45;97225.88;;;5.62;83.33
31346;BME280;21711;49.708;18.568;2022-12-29T07:42:12;97225.47;;;5.53;83.81
31346;BME280;21711;49.708;18.568;2022-12-29T07:44:42;97234.16;;;5.54;82.87
31346;BME280;21711;49.708;18.568;2022-12-29T07:47:18;97228.53;;;5.45;83.13
31346;BME280;21711;49.708;18.568;2022-12-29T07:49:45;97237.97;;;5.46;82.04
31346;BME280;21711;49.708;18.568;2022-12-29T07:52:12;97229.38;;;5.51;81.46
31346;BME280;21711;49.708;18.568;2022-12-29T07:54:39;97231.66;;;5.64;81.12
31346;BME280;21711;49.708;18.568;2022-12-29T07:57:07;97237.16;;;5.80;80.50
31346;BME280;21711;49.708;18.568;2022-12-29T07:59:34;97235.28;;;5.81;82.80
31346;BME280;21711;49.708;18.568;2022-12-29T08:02:02;97240.00;;;5.78;80.95
31346;BME280;21711;49.708;18.568;2022-12-29T08:04:30;97235.88;;;5.83;81.22
31346;BME280;21711;49.708;18.568;2022-12-29T08:06:57;97230.44;;;5.89;80.12
31346;BME280;21711;49.708;18.568;2022-12-29T08:09:24;97234.09;;;5.88;80.46
31346;BME280;21711;49.708;18.568;2022-12-29T08:11:51;97234.66;;;5.90;80.80
31346;BME280;21711;49.708;18.568;2022-12-29T08:14:20;97226.03;;;5.95;81.54
31346;BME280;21711;49.708;18.568;2022-12-29T08:16:47;97217.06;;;5.91;81.88
31346;BME280;21711;49.708;18.568;2022-12-29T08:19:15;97219.63;;;5.86;84.17
31346;BME280;21711;49.708;18.568;2022-12-29T08:21:42;97225.31;;;5.77;83.50
31346;BME280;21711;49.708;18.568;2022-12-29T08:24:09;97210.09;;;5.79;83.97
31346;BME280;21711;49.708;18.568;2022-12-29T08:26:37;97211.50;;;5.87;83.79
31346;BME280;21711;49.708;18.568;2022-12-29T08:29:04;97215.09;;;5.81;84.27
31346;BME280;21711;49.708;18.568;2022-12-29T08:31:32;97218.91;;;5.90;83.05
31346;BME280;21711;49.708;18.568;2022-12-29T08:34:00;97225.25;;;5.95;83.61
31346;BME280;21711;49.708;18.568;2022-12-29T08:36:28;97220.00;;;5.95;85.41
31346;BME280;21711;49.708;18.568;2022-12-29T08:38:56;97221.75;;;5.89;84.53
31346;BME280;21711;49.708;18.568;2022-12-29T08:41:24;97217.06;;;5.91;90.21
31346;BME280;21711;49.708;18.568;2022-12-29T08:43:52;97218.41;;;5.93;90.86
31346;BME280;21711;49.708;18.568;2022-12-29T08:46:19;97221.66;;;6.01;87.96
31346;BME280;21711;49.708;18.568;2022-12-29T08:48:46;97213.38;;;6.09;85.43
31346;BME280;21711;49.708;18.568;2022-12-29T08:51:14;97212.88;;;6.12;86.10
31346;BME280;21711;49.708;18.568;2022-12-29T08:53:47;97206.22;;;6.27;83.96
31346;BME280;21711;49.708;18.568;2022-12-29T08:56:15;97208.22;;;6.42;83.43
31346;BME280;21711;49.708;18.568;2022-12-29T08:58:48;97195.25;;;6.57;82.58
31346;BME280;21711;49.708;18.568;2022-12-29T09:01:17;97210.31;;;6.67;81.08
31346;BME280;21711;49.708;18.568;2022-12-29T09:03:46;97205.88;;;7.01;80.19
31346;BME280;21711;49.708;18.568;2022-12-29T09:06:33;97209.31;;;7.34;79.21
31346;BME280;21711;49.708;18.568;2022-12-29T09:09:06;97200.06;;;7.31;79.12
31346;BME280;21711;49.708;18.568;2022-12-29T09:11:34;97198.78;;;7.34;79.47
31346;BME280;21711;49.708;18.568;2022-12-29T09:14:01;97187.00;;;7.47;79.77
31346;BME280;21711;49.708;18.568;2022-12-29T09:16:28;97178.91;;;7.54;78.18
31346;BME280;21711;49.708;18.568;2022-12-29T09:18:56;97178.97;;;7.69;79.03
31346;BME280;21711;49.708;18.568;2022-12-29T09:21:23;97175.84;;;7.78;78.04
31346;BME280;21711;49.708;18.568;2022-12-29T09:23:51;97177.75;;;7.82;79.44
31346;BME280;21711;49.708;18.568;2022-12-29T09:26:18;97176.44;;;7.85;76.59
31346;BME280;21711;49.708;18.568;2022-12-29T09:28:45;97184.66;;;8.04;80.34
31346;BME280;21711;49.708;18.568;2022-12-29T09:31:14;97176.75;;;7.99;81.10
31346;BME280;21711;49.708;18.568;2022-12-29T09:33:41;97173.78;;;7.80;76.99
31346;BME280;21711;49.708;18.568;2022-12-29T09:36:09;97173.03;;;7.89;79.90
31346;BME280;21711;49.708;18.568;2022-12-29T09:38:36;97177.94;;;7.70;81.06
31346;BME280;21711;49.708;18.568;2022-12-29T09:41:20;97182.59;;;7.58;82.65
31346;BME280;21711;49.708;18.568;2022-12-29T09:46:46;97175.09;;;7.34;83.08
31346;BME280;21711;49.708;18.568;2022-12-29T09:49:40;97172.41;;;7.23;82.33
31346;BME280;21711;49.708;18.568;2022-12-29T09:57:58;97185.03;;;7.70;77.49
31346;BME280;21711;49.708;18.568;2022-12-29T10:01:01;97187.97;;;7.79;76.91
31346;BME280;21711;49.708;18.568;2022-12-29T10:03:53;97201.28;;;8.05;79.70
31346;BME280;21711;49.708;18.568;2022-12-29T10:10:16;97205.16;;;8.66;80.80
31346;BME280;21711;49.708;18.568;2022-12-29T10:13:04;97202.84;;;9.11;74.78
31346;BME280;21711;49.708;18.568;2022-12-29T10:24:00;97203.38;;;10.21;70.20
31346;BME280;21711;49.708;18.568;2022-12-29T10:26:37;97201.16;;;10.44;70.60
31346;BME280;21711;49.708;18.568;2022-12-29T10:29:18;97202.72;;;10.55;70.32
31346;BME280;21711;49.708;18.568;2022-12-29T10:32:09;97194.19;;;10.63;69.83
31346;BME280;21711;49.708;18.568;2022-12-29T10:34:49;97190.50;;;10.64;67.20
31346;BME280;21711;49.708;18.568;2022-12-29T10:40:31;97186.56;;;10.57;67.11
31346;BME280;21711;49.708;18.568;2022-12-29T10:43:00;97180.13;;;10.73;66.33
31346;BME280;21711;49.708;18.568;2022-12-29T10:45:31;97167.28;;;10.91;66.09
31346;BME280;21711;49.708;18.568;2022-12-29T10:48:20;97176.34;;;11.14;66.73
31346;BME280;21711;49.708;18.568;2022-12-29T10:50:59;97167.16;;;11.36;66.68
31346;BME280;21711;49.708;18.568;2022-12-29T10:53:58;97167.66;;;11.38;65.00
31346;BME280;21711;49.708;18.568;2022-12-29T10:56:35;97175.59;;;11.68;62.93
31346;BME280;21711;49.708;18.568;2022-12-29T10:59:23;97178.69;;;12.43;61.64
31346;BME280;21711;49.708;18.568;2022-12-29T11:05:12;97187.69;;;14.68;53.73
31346;BME280;21711;49.708;18.568;2022-12-29T11:07:43;97176.88;;;16.23;48.35
31346;BME280;21711;49.708;18.568;2022-12-29T11:10:42;97168.56;;;16.87;45.32
31346;BME280;21711;49.708;18.568;2022-12-29T11:13:31;97175.50;;;17.92;43.19
31346;BME280;21711;49.708;18.568;2022-12-29T11:16:05;97174.72;;;17.53;44.76
31346;BME280;21711;49.708;18.568;2022-12-29T11:18:37;97165.88;;;16.95;44.76
31346;BME280;21711;49.708;18.568;2022-12-29T11:21:38;97169.19;;;17.10;44.05
31346;BME280;21711;49.708;18.568;2022-12-29T11:24:24;97178.69;;;17.46;44.30
31346;BME280;21711;49.708;18.568;2022-12-29T11:26:55;97178.47;;;17.60;43.45
31346;BME280;21711;49.708;18.568;2022-12-29T11:29:28;97175.28;;;17.28;44.49
31346;BME280;21711;49.708;18.568;2022-12-29T11:31:57;97181.72;;;17.27;43.58
31346;BME280;21711;49.708;18.568;2022-12-29T11:34:35;97174.91;;;17.47;43.71
31346;BME280;21711;49.708;18.568;2022-12-29T11:37:32;97172.16;;;16.82;45.31
31346;BME280;21711;49.708;18.568;2022-12-29T11:42:42;97171.72;;;15.77;50.10
31346;BME280;21711;49.708;18.568;2022-12-29T11:45:22;97166.63;;;15.58;47.05
31346;BME280;21711;49.708;18.568;2022-12-29T11:48:06;97163.94;;;14.95;51.98
31346;BME280;21711;49.708;18.568;2022-12-29T11:50:40;97162.34;;;14.71;50.84
31346;BME280;21711;49.708;18.568;2022-12-29T11:53:29;97163.53;;;14.79;50.40
31346;BME280;21711;49.708;18.568;2022-12-29T11:56:06;97164.50;;;14.09;51.79
31346;BME280;21711;49.708;18.568;2022-12-29T11:58:37;97171.13;;;13.84;50.04
31346;BME280;21711;49.708;18.568;2022-12-29T12:04:16;97170.31;;;13.69;51.71
31346;BME280;21711;49.708;18.568;2022-12-29T12:07:24;97162.03;;;13.85;52.80
31346;BME280;21711;49.708;18.568;2022-12-29T12:10:00;97171.22;;;14.43;52.52
31346;BME280;21711;49.708;18.568;2022-12-29T12:12:51;97171.13;;;14.94;47.32
31346;BME280;21711;49.708;18.568;2022-12-29T12:15:30;97173.09;;;15.66;47.17
31346;BME280;21711;49.708;18.568;2022-12-29T12:18:24;97183.44;;;16.17;45.37
31346;BME280;21711;49.708;18.568;2022-12-29T12:20:58;97180.81;;;16.43;45.19
31346;BME280;21711;49.708;18.568;2022-12-29T12:26:27;97182.50;;;16.13;44.27
31346;BME280;21711;49.708;18.568;2022-12-29T12:29:20;97168.84;;;15.24;46.18
31346;BME280;21711;49.708;18.568;2022-12-29T12:32:04;97172.19;;;14.70;49.72
31346;BME280;21711;49.708;18.568;2022-12-29T12:34:41;97169.31;;;14.58;49.40
31346;BME280;21711;49.708;18.568;2022-12-29T12:52:56;97167.47;;;12.27;56.17
31346;BME280;21711;49.708;18.568;2022-12-29T12:59:41;97146.00;;;11.07;59.39
31346;BME280;21711;49.708;18.568;2022-12-29T13:08:38;97156.13;;;10.64;63.63
31346;BME280;21711;49.708;18.568;2022-12-29T13:11:35;97154.78;;;10.62;63.51
31346;BME280;21711;49.708;18.568;2022-12-29T13:22:58;97143.69;;;9.49;72.64
31346;BME280;21711;49.708;18.568;2022-12-29T13:25:56;97153.75;;;9.15;73.78
31346;BME280;21711;49.708;18.568;2022-12-29T13:28:36;97146.41;;;8.91;71.94
31346;BME280;21711;49.708;18.568;2022-12-29T13:31:24;97155.84;;;8.66;72.89
31346;BME280;21711;49.708;18.568;2022-12-29T13:37:01;97140.97;;;8.08;74.94
31346;BME280;21711;49.708;18.568;2022-12-29T13:39:36;97143.56;;;7.98;75.77
31346;BME280;21711;49.708;18.568;2022-12-29T13:42:05;97136.44;;;7.93;76.80
31346;BME280;21711;49.708;18.568;2022-12-29T13:47:36;97121.44;;;7.94;80.26
31346;BME280;21711;49.708;18.568;2022-12-29T13:50:17;97123.78;;;7.85;78.11
31346;BME280;21711;49.708;18.568;2022-12-29T13:53:16;97117.53;;;7.48;78.69
31346;BME280;21711;49.708;18.568;2022-12-29T13:58:31;97128.06;;;7.48;81.13
31346;BME280;21711;49.708;18.568;2022-12-29T14:01:50;97124.25;;;7.23;79.92
31346;BME280;21711;49.708;18.568;2022-12-29T14:04:25;97118.13;;;7.12;79.98
31346;BME280;21711;49.708;18.568;2022-12-29T14:07:11;97122.66;;;7.17;80.61
31346;BME280;21711;49.708;18.568;2022-12-29T14:09:55;97111.03;;;7.13;82.24
31346;BME280;21711;49.708;18.568;2022-12-29T14:12:42;97116.31;;;7.13;81.60
31346;BME280;21711;49.708;18.568;2022-12-29T14:17:44;97124.47;;;7.16;81.17
31346;BME280;21711;49.708;18.568;2022-12-29T14:20:22;97110.97;;;6.97;82.92
31346;BME280;21711;49.708;18.568;2022-12-29T14:23:38;97110.38;;;6.90;82.47
31346;BME280;21711;49.708;18.568;2022-12-29T14:34:55;97110.66;;;6.61;83.90
31346;BME280;21711;49.708;18.568;2022-12-29T14:37:30;97119.69;;;6.70;85.56
31346;BME280;21711;49.708;18.568;2022-12-29T14:42:33;97111.69;;;6.54;85.30
31346;BME280;21711;49.708;18.568;2022-12-29T14:47:47;97113.25;;;6.55;86.85
31346;BME280;21711;49.708;18.568;2022-12-29T14:52:57;97109.94;;;6.65;85.99
31346;BME280;21711;49.708;18.568;2022-12-29T14:55:53;97107.50;;;6.58;85.51
31346;BME280;21711;49.708;18.568;2022-12-29T14:58:32;97116.53;;;6.68;86.65
31346;BME280;21711;49.708;18.568;2022-12-29T15:01:01;97113.25;;;6.55;91.51
31346;BME280;21711;49.708;18.568;2022-12-29T15:03:33;97106.22;;;6.34;90.91
31346;BME280;21711;49.708;18.568;2022-12-29T15:06:09;97103.69;;;6.16;92.31
31346;BME280;21711;49.708;18.568;2022-12-29T15:09:06;97112.91;;;6.19;95.42
31346;BME280;21711;49.708;18.568;2022-12-29T15:11:44;97108.38;;;6.09;94.19
31346;BME280;21711;49.708;18.568;2022-12-29T15:14:50;97110.75;;;6.11;92.35
31346;BME280;21711;49.708;18.568;2022-12-29T15:17:33;97112.09;;;6.13;93.77
31346;BME280;21711;49.708;18.568;2022-12-29T15:20:21;97109.00;;;5.99;96.16
31346;BME280;21711;49.708;18.568;2022-12-29T15:23:08;97108.53;;;6.02;94.27
31346;BME280;21711;49.708;18.568;2022-12-29T15:25:36;97116.34;;;5.97;95.37
31346;BME280;21711;49.708;18.568;2022-12-29T15:28:05;97118.78;;;5.82;95.33
31346;BME280;21711;49.708;18.568;2022-12-29T15:30:34;97109.84;;;5.77;96.03
31346;BME280;21711;49.708;18.568;2022-12-29T15:33:02;97102.91;;;5.93;94.83
31346;BME280;21711;49.708;18.568;2022-12-29T15:35:34;97110.78;;;5.93;93.21
31346;BME280;21711;49.708;18.568;2022-12-29T15:38:23;97107.13;;;5.95;94.93
31346;BME280;21711;49.708;18.568;2022-12-29T15:43:55;97121.78;;;5.90;92.22
31346;BME280;21711;49.708;18.568;2022-12-29T15:46:29;97122.03;;;5.89;92.06
31346;BME280;21711;49.708;18.568;2022-12-29T15:48:57;97110.19;;;5.86;91.70
31346;BME280;21711;49.708;18.568;2022-12-29T15:51:35;97110.19;;;5.86;90.79
31346;BME280;21711;49.708;18.568;2022-12-29T15:54:04;97105.84;;;5.97;91.46
31346;BME280;21711;49.708;18.568;2022-12-29T15:56:32;97118.59;;;5.88;90.26
31346;BME280;21711;49.708;18.568;2022-12-29T15:59:01;97119.16;;;5.90;90.10